Renner Field-Goodland Municipal Airport Goodland US
ICAO: KGLD
IATA: GLD
Category: Medium
Scheduled Services: No

Elevation: 3656 ft
TransAlt. 18000 ft.

Airport Communications:
ASOS:121.025
DENVER CNTR:132.5
WICHITA RDO:122.4
CTAF/UNICOM:122.95

KGLD Zoom In..

Runways:

(A) RW 05 length 3501 ft width 75 ft
---- / hdg 54

(B) RW 12 length 5499 ft width 100 ft
---- / hdg 125

(C) RW 17 length 1781 ft width 40 ft
---- / hdg 171

(D) RW 23 length 3501 ft width 75 ft
---- / hdg 234

(E) RW 30 length 5499 ft width 100 ft
ILS 108.90 / hdg 305

(F) RW 35 length 1781 ft width 40 ft
---- / hdg 351

Location; KGLD
Day. 24 / Time. 01.53 Zulu
* Altimeter: 30.29
* Temperature: -04° c. -24.8°f.
* Wind from: 270° Speed 09 kn.
Dewpoint: -08° c.
Visibility: 10 Statute Miles.
Clouds: Clear (automated report).

KGLD 240153Z AUTO 27009KT 10SM CLR M04/M08 A3029 RMK AO2 SLP301 T10441083


Wind From 270°
Speed 09 kn.

YouTube Music Video
 
jpsmedia.com for Web Design  worldairports.se 2018   terms of use